<?xml version="1.0" encoding="UTF-8" standalone="no" ?>
<gpx xmlns="http://www.topografix.com/GPX/1/1" xmlns:xsi="http://www.w3.org/2001/XMLSchema-instance" xsi:schemaLocation="http://www.topografix.com/GPX/1/1 http://www.topografix.com/GPX/1/1/gpx.xsd" version="1.1" creator="VisuGPX - https://www.visugpx.com">
  <metadata>
    <name>Pointe du Raz</name>
    <desc><![CDATA[Départ du parking de la pointe du Van ; arrivée parking de la pointe du Raz]]></desc>
  </metadata>
  <trk>
    <name><![CDATA[POINTE DU RÀZ1]]></name>
    <desc><![CDATA[À partir de la Piste Active]]></desc>
    <trkseg>
      <trkpt lat="48.05978" lon="-4.70793">
        <ele>51.398438</ele>
        <time>2017-05-03T10:55:00Z</time>
      </trkpt>
      <trkpt lat="48.05972" lon="-4.70797">
        <ele>56.417969</ele>
        <time>2017-05-03T10:56:07Z</time>
      </trkpt>
      <trkpt lat="48.05973" lon="-4.70811">
        <ele>59.796875</ele>
        <time>2017-05-03T10:58:40Z</time>
      </trkpt>
      <trkpt lat="48.05973" lon="-4.70825">
        <ele>60.296875</ele>
        <time>2017-05-03T10:58:49Z</time>
      </trkpt>
      <trkpt lat="48.0597" lon="-4.70839">
        <ele>59.699219</ele>
        <time>2017-05-03T10:59:00Z</time>
      </trkpt>
      <trkpt lat="48.05968" lon="-4.70853">
        <ele>58.5</ele>
        <time>2017-05-03T10:59:09Z</time>
      </trkpt>
      <trkpt lat="48.05969" lon="-4.70868">
        <ele>58.097656</ele>
        <time>2017-05-03T10:59:19Z</time>
      </trkpt>
      <trkpt lat="48.05975" lon="-4.70877">
        <ele>58</ele>
        <time>2017-05-03T10:59:27Z</time>
      </trkpt>
      <trkpt lat="48.05981" lon="-4.70888">
        <ele>58.898438</ele>
        <time>2017-05-03T10:59:35Z</time>
      </trkpt>
      <trkpt lat="48.05989" lon="-4.70897">
        <ele>58.597656</ele>
        <time>2017-05-03T10:59:43Z</time>
      </trkpt>
      <trkpt lat="48.06011" lon="-4.70922">
        <ele>56.898438</ele>
        <time>2017-05-03T11:00:07Z</time>
      </trkpt>
      <trkpt lat="48.06033" lon="-4.70946">
        <ele>57.898438</ele>
        <time>2017-05-03T11:00:36Z</time>
      </trkpt>
      <trkpt lat="48.06039" lon="-4.70956">
        <ele>58.796875</ele>
        <time>2017-05-03T11:00:44Z</time>
      </trkpt>
      <trkpt lat="48.06037" lon="-4.70971">
        <ele>58.597656</ele>
        <time>2017-05-03T11:00:52Z</time>
      </trkpt>
      <trkpt lat="48.06034" lon="-4.70984">
        <ele>58.597656</ele>
        <time>2017-05-03T11:01:00Z</time>
      </trkpt>
      <trkpt lat="48.06027" lon="-4.7101">
        <ele>59</ele>
        <time>2017-05-03T11:01:16Z</time>
      </trkpt>
      <trkpt lat="48.06011" lon="-4.7106">
        <ele>59.597656</ele>
        <time>2017-05-03T11:01:48Z</time>
      </trkpt>
      <trkpt lat="48.06008" lon="-4.71073">
        <ele>58.199219</ele>
        <time>2017-05-03T11:01:56Z</time>
      </trkpt>
      <trkpt lat="48.05985" lon="-4.71179">
        <ele>49.898438</ele>
        <time>2017-05-03T11:03:02Z</time>
      </trkpt>
      <trkpt lat="48.0598" lon="-4.71192">
        <ele>42</ele>
        <time>2017-05-03T11:03:10Z</time>
      </trkpt>
      <trkpt lat="48.05976" lon="-4.71205">
        <ele>43.699219</ele>
        <time>2017-05-03T11:07:19Z</time>
      </trkpt>
      <trkpt lat="48.05967" lon="-4.71199">
        <ele>45.597656</ele>
        <time>2017-05-03T11:07:29Z</time>
      </trkpt>
      <trkpt lat="48.0596" lon="-4.71188">
        <ele>44.796875</ele>
        <time>2017-05-03T11:07:38Z</time>
      </trkpt>
      <trkpt lat="48.05952" lon="-4.7118">
        <ele>45.398438</ele>
        <time>2017-05-03T11:07:49Z</time>
      </trkpt>
      <trkpt lat="48.05943" lon="-4.71176">
        <ele>46</ele>
        <time>2017-05-03T11:07:58Z</time>
      </trkpt>
      <trkpt lat="48.05934" lon="-4.7117">
        <ele>47</ele>
        <time>2017-05-03T11:08:07Z</time>
      </trkpt>
      <trkpt lat="48.05924" lon="-4.71169">
        <ele>47</ele>
        <time>2017-05-03T11:08:16Z</time>
      </trkpt>
      <trkpt lat="48.05918" lon="-4.71178">
        <ele>46</ele>
        <time>2017-05-03T11:08:24Z</time>
      </trkpt>
      <trkpt lat="48.05912" lon="-4.71189">
        <ele>44.898438</ele>
        <time>2017-05-03T11:08:32Z</time>
      </trkpt>
      <trkpt lat="48.05906" lon="-4.71201">
        <ele>43.5</ele>
        <time>2017-05-03T11:08:40Z</time>
      </trkpt>
      <trkpt lat="48.05902" lon="-4.71214">
        <ele>47.398438</ele>
        <time>2017-05-03T11:08:48Z</time>
      </trkpt>
      <trkpt lat="48.05898" lon="-4.71231">
        <ele>46.699219</ele>
        <time>2017-05-03T11:11:12Z</time>
      </trkpt>
      <trkpt lat="48.05892" lon="-4.71244">
        <ele>44.898438</ele>
        <time>2017-05-03T11:11:21Z</time>
      </trkpt>
      <trkpt lat="48.05888" lon="-4.71256">
        <ele>46.199219</ele>
        <time>2017-05-03T11:11:31Z</time>
      </trkpt>
      <trkpt lat="48.05882" lon="-4.71267">
        <ele>47.199219</ele>
        <time>2017-05-03T11:11:41Z</time>
      </trkpt>
      <trkpt lat="48.05875" lon="-4.71278">
        <ele>42.5</ele>
        <time>2017-05-03T11:11:50Z</time>
      </trkpt>
      <trkpt lat="48.05868" lon="-4.71286">
        <ele>44.5</ele>
        <time>2017-05-03T11:13:08Z</time>
      </trkpt>
      <trkpt lat="48.05859" lon="-4.71289">
        <ele>45.398438</ele>
        <time>2017-05-03T11:13:27Z</time>
      </trkpt>
      <trkpt lat="48.05841" lon="-4.71296">
        <ele>43.296875</ele>
        <time>2017-05-03T11:14:09Z</time>
      </trkpt>
      <trkpt lat="48.0582" lon="-4.713">
        <ele>45</ele>
        <time>2017-05-03T11:14:43Z</time>
      </trkpt>
      <trkpt lat="48.05812" lon="-4.71305">
        <ele>45.796875</ele>
        <time>2017-05-03T11:14:51Z</time>
      </trkpt>
      <trkpt lat="48.05803" lon="-4.71314">
        <ele>46.699219</ele>
        <time>2017-05-03T11:15:00Z</time>
      </trkpt>
      <trkpt lat="48.05796" lon="-4.71323">
        <ele>47.898438</ele>
        <time>2017-05-03T11:15:08Z</time>
      </trkpt>
      <trkpt lat="48.0579" lon="-4.71334">
        <ele>49.199219</ele>
        <time>2017-05-03T11:15:16Z</time>
      </trkpt>
      <trkpt lat="48.05785" lon="-4.71347">
        <ele>50.796875</ele>
        <time>2017-05-03T11:15:25Z</time>
      </trkpt>
      <trkpt lat="48.05776" lon="-4.71342">
        <ele>49.898438</ele>
        <time>2017-05-03T11:15:34Z</time>
      </trkpt>
      <trkpt lat="48.0577" lon="-4.71332">
        <ele>48.097656</ele>
        <time>2017-05-03T11:15:43Z</time>
      </trkpt>
      <trkpt lat="48.05765" lon="-4.71319">
        <ele>48.597656</ele>
        <time>2017-05-03T11:15:52Z</time>
      </trkpt>
      <trkpt lat="48.0576" lon="-4.71307">
        <ele>50.796875</ele>
        <time>2017-05-03T11:16:01Z</time>
      </trkpt>
      <trkpt lat="48.05758" lon="-4.71293">
        <ele>52.5</ele>
        <time>2017-05-03T11:16:11Z</time>
      </trkpt>
      <trkpt lat="48.05757" lon="-4.71279">
        <ele>53.597656</ele>
        <time>2017-05-03T11:16:20Z</time>
      </trkpt>
      <trkpt lat="48.05751" lon="-4.71267">
        <ele>53.796875</ele>
        <time>2017-05-03T11:16:30Z</time>
      </trkpt>
      <trkpt lat="48.05743" lon="-4.7126">
        <ele>52.898438</ele>
        <time>2017-05-03T11:16:39Z</time>
      </trkpt>
      <trkpt lat="48.05733" lon="-4.71256">
        <ele>51.796875</ele>
        <time>2017-05-03T11:16:48Z</time>
      </trkpt>
      <trkpt lat="48.05715" lon="-4.71248">
        <ele>48.597656</ele>
        <time>2017-05-03T11:17:05Z</time>
      </trkpt>
      <trkpt lat="48.05706" lon="-4.71243">
        <ele>47.5</ele>
        <time>2017-05-03T11:17:59Z</time>
      </trkpt>
      <trkpt lat="48.05697" lon="-4.7124">
        <ele>47.398438</ele>
        <time>2017-05-03T11:18:11Z</time>
      </trkpt>
      <trkpt lat="48.05688" lon="-4.71235">
        <ele>48</ele>
        <time>2017-05-03T11:18:20Z</time>
      </trkpt>
      <trkpt lat="48.05679" lon="-4.71228">
        <ele>46.796875</ele>
        <time>2017-05-03T11:18:31Z</time>
      </trkpt>
      <trkpt lat="48.05677" lon="-4.71215">
        <ele>45</ele>
        <time>2017-05-03T11:18:41Z</time>
      </trkpt>
      <trkpt lat="48.05679" lon="-4.71201">
        <ele>44</ele>
        <time>2017-05-03T11:18:50Z</time>
      </trkpt>
      <trkpt lat="48.05683" lon="-4.71189">
        <ele>41.699219</ele>
        <time>2017-05-03T11:18:59Z</time>
      </trkpt>
      <trkpt lat="48.05687" lon="-4.71176">
        <ele>35.296875</ele>
        <time>2017-05-03T11:19:08Z</time>
      </trkpt>
      <trkpt lat="48.05688" lon="-4.7116">
        <ele>34.5</ele>
        <time>2017-05-03T11:20:02Z</time>
      </trkpt>
      <trkpt lat="48.05679" lon="-4.7116">
        <ele>33.796875</ele>
        <time>2017-05-03T11:20:19Z</time>
      </trkpt>
      <trkpt lat="48.05671" lon="-4.71168">
        <ele>32.398438</ele>
        <time>2017-05-03T11:20:31Z</time>
      </trkpt>
      <trkpt lat="48.05664" lon="-4.71159">
        <ele>26.097656</ele>
        <time>2017-05-03T11:20:43Z</time>
      </trkpt>
      <trkpt lat="48.05658" lon="-4.71148">
        <ele>28.398438</ele>
        <time>2017-05-03T11:21:27Z</time>
      </trkpt>
      <trkpt lat="48.05665" lon="-4.71139">
        <ele>32.699219</ele>
        <time>2017-05-03T11:21:39Z</time>
      </trkpt>
      <trkpt lat="48.05671" lon="-4.71127">
        <ele>37</ele>
        <time>2017-05-03T11:22:08Z</time>
      </trkpt>
      <trkpt lat="48.05664" lon="-4.71117">
        <ele>36.796875</ele>
        <time>2017-05-03T11:22:25Z</time>
      </trkpt>
      <trkpt lat="48.05655" lon="-4.71115">
        <ele>35.097656</ele>
        <time>2017-05-03T11:22:37Z</time>
      </trkpt>
      <trkpt lat="48.05645" lon="-4.71116">
        <ele>33.898438</ele>
        <time>2017-05-03T11:22:47Z</time>
      </trkpt>
      <trkpt lat="48.05636" lon="-4.71116">
        <ele>32</ele>
        <time>2017-05-03T11:22:57Z</time>
      </trkpt>
      <trkpt lat="48.05628" lon="-4.71121">
        <ele>32.796875</ele>
        <time>2017-05-03T11:23:07Z</time>
      </trkpt>
      <trkpt lat="48.05619" lon="-4.71114">
        <ele>35.199219</ele>
        <time>2017-05-03T11:23:17Z</time>
      </trkpt>
      <trkpt lat="48.05612" lon="-4.71106">
        <ele>32.796875</ele>
        <time>2017-05-03T11:23:28Z</time>
      </trkpt>
      <trkpt lat="48.05604" lon="-4.71099">
        <ele>28.898438</ele>
        <time>2017-05-03T11:23:42Z</time>
      </trkpt>
      <trkpt lat="48.05588" lon="-4.71086">
        <ele>20.296875</ele>
        <time>2017-05-03T11:24:18Z</time>
      </trkpt>
      <trkpt lat="48.05581" lon="-4.71076">
        <ele>16.898438</ele>
        <time>2017-05-03T11:25:06Z</time>
      </trkpt>
      <trkpt lat="48.05574" lon="-4.71065">
        <ele>17.296875</ele>
        <time>2017-05-03T11:25:16Z</time>
      </trkpt>
      <trkpt lat="48.05565" lon="-4.71061">
        <ele>17.398438</ele>
        <time>2017-05-03T11:25:25Z</time>
      </trkpt>
      <trkpt lat="48.05558" lon="-4.71052">
        <ele>20.296875</ele>
        <time>2017-05-03T11:25:33Z</time>
      </trkpt>
      <trkpt lat="48.05552" lon="-4.71041">
        <ele>22</ele>
        <time>2017-05-03T11:25:42Z</time>
      </trkpt>
      <trkpt lat="48.05547" lon="-4.7103">
        <ele>23.5</ele>
        <time>2017-05-03T11:25:51Z</time>
      </trkpt>
      <trkpt lat="48.05538" lon="-4.71033">
        <ele>22.398438</ele>
        <time>2017-05-03T11:26:07Z</time>
      </trkpt>
      <trkpt lat="48.0553" lon="-4.71041">
        <ele>23.097656</ele>
        <time>2017-05-03T11:26:18Z</time>
      </trkpt>
      <trkpt lat="48.05521" lon="-4.71042">
        <ele>27.796875</ele>
        <time>2017-05-03T11:26:38Z</time>
      </trkpt>
      <trkpt lat="48.05515" lon="-4.71031">
        <ele>29.398438</ele>
        <time>2017-05-03T11:26:52Z</time>
      </trkpt>
      <trkpt lat="48.05509" lon="-4.71043">
        <ele>29.597656</ele>
        <time>2017-05-03T11:27:14Z</time>
      </trkpt>
      <trkpt lat="48.05506" lon="-4.71057">
        <ele>32.199219</ele>
        <time>2017-05-03T11:27:26Z</time>
      </trkpt>
      <trkpt lat="48.05501" lon="-4.71067">
        <ele>35.597656</ele>
        <time>2017-05-03T11:27:40Z</time>
      </trkpt>
      <trkpt lat="48.05493" lon="-4.71075">
        <ele>37.398438</ele>
        <time>2017-05-03T11:27:57Z</time>
      </trkpt>
      <trkpt lat="48.05488" lon="-4.71086">
        <ele>38</ele>
        <time>2017-05-03T11:28:14Z</time>
      </trkpt>
      <trkpt lat="48.05482" lon="-4.71097">
        <ele>39.597656</ele>
        <time>2017-05-03T11:28:24Z</time>
      </trkpt>
      <trkpt lat="48.05477" lon="-4.7111">
        <ele>40.597656</ele>
        <time>2017-05-03T11:28:34Z</time>
      </trkpt>
      <trkpt lat="48.0547" lon="-4.71119">
        <ele>41</ele>
        <time>2017-05-03T11:28:45Z</time>
      </trkpt>
      <trkpt lat="48.05462" lon="-4.71126">
        <ele>41</ele>
        <time>2017-05-03T11:28:55Z</time>
      </trkpt>
      <trkpt lat="48.05456" lon="-4.71136">
        <ele>41.398438</ele>
        <time>2017-05-03T11:29:05Z</time>
      </trkpt>
      <trkpt lat="48.05451" lon="-4.71148">
        <ele>40.796875</ele>
        <time>2017-05-03T11:29:14Z</time>
      </trkpt>
      <trkpt lat="48.05446" lon="-4.71161">
        <ele>39.898438</ele>
        <time>2017-05-03T11:29:23Z</time>
      </trkpt>
      <trkpt lat="48.0544" lon="-4.71173">
        <ele>39.5</ele>
        <time>2017-05-03T11:29:32Z</time>
      </trkpt>
      <trkpt lat="48.05418" lon="-4.71219">
        <ele>35.699219</ele>
        <time>2017-05-03T11:30:11Z</time>
      </trkpt>
      <trkpt lat="48.05411" lon="-4.71228">
        <ele>34.398438</ele>
        <time>2017-05-03T11:30:21Z</time>
      </trkpt>
      <trkpt lat="48.05403" lon="-4.71236">
        <ele>34.699219</ele>
        <time>2017-05-03T11:30:34Z</time>
      </trkpt>
      <trkpt lat="48.05397" lon="-4.71246">
        <ele>34</ele>
        <time>2017-05-03T11:30:49Z</time>
      </trkpt>
      <trkpt lat="48.05393" lon="-4.7126">
        <ele>34.296875</ele>
        <time>2017-05-03T11:30:59Z</time>
      </trkpt>
      <trkpt lat="48.05388" lon="-4.71271">
        <ele>34.597656</ele>
        <time>2017-05-03T11:31:08Z</time>
      </trkpt>
      <trkpt lat="48.05368" lon="-4.71319">
        <ele>35.5</ele>
        <time>2017-05-03T11:31:47Z</time>
      </trkpt>
      <trkpt lat="48.05364" lon="-4.71332">
        <ele>35.597656</ele>
        <time>2017-05-03T11:31:56Z</time>
      </trkpt>
      <trkpt lat="48.05359" lon="-4.71345">
        <ele>35.796875</ele>
        <time>2017-05-03T11:32:06Z</time>
      </trkpt>
      <trkpt lat="48.05357" lon="-4.71358">
        <ele>37.699219</ele>
        <time>2017-05-03T11:32:17Z</time>
      </trkpt>
      <trkpt lat="48.05356" lon="-4.71372">
        <ele>35.699219</ele>
        <time>2017-05-03T11:32:28Z</time>
      </trkpt>
      <trkpt lat="48.05356" lon="-4.71358">
        <ele>36.699219</ele>
        <time>2017-05-03T11:36:59Z</time>
      </trkpt>
      <trkpt lat="48.05358" lon="-4.71343">
        <ele>39</ele>
        <time>2017-05-03T11:37:09Z</time>
      </trkpt>
      <trkpt lat="48.05363" lon="-4.71333">
        <ele>38.699219</ele>
        <time>2017-05-03T11:37:19Z</time>
      </trkpt>
      <trkpt lat="48.05368" lon="-4.71321">
        <ele>37.199219</ele>
        <time>2017-05-03T11:37:29Z</time>
      </trkpt>
      <trkpt lat="48.05369" lon="-4.71307">
        <ele>34.398438</ele>
        <time>2017-05-03T11:37:39Z</time>
      </trkpt>
      <trkpt lat="48.05364" lon="-4.71294">
        <ele>30.597656</ele>
        <time>2017-05-03T11:37:49Z</time>
      </trkpt>
      <trkpt lat="48.05359" lon="-4.71283">
        <ele>27.898438</ele>
        <time>2017-05-03T11:37:59Z</time>
      </trkpt>
      <trkpt lat="48.05355" lon="-4.7127">
        <ele>24.597656</ele>
        <time>2017-05-03T11:38:08Z</time>
      </trkpt>
      <trkpt lat="48.05344" lon="-4.71232">
        <ele>19.5</ele>
        <time>2017-05-03T11:38:36Z</time>
      </trkpt>
      <trkpt lat="48.05341" lon="-4.71219">
        <ele>18.398438</ele>
        <time>2017-05-03T11:38:46Z</time>
      </trkpt>
      <trkpt lat="48.05339" lon="-4.71205">
        <ele>18.597656</ele>
        <time>2017-05-03T11:38:58Z</time>
      </trkpt>
      <trkpt lat="48.0534" lon="-4.71191">
        <ele>20.296875</ele>
        <time>2017-05-03T11:39:07Z</time>
      </trkpt>
      <trkpt lat="48.05343" lon="-4.71146">
        <ele>23</ele>
        <time>2017-05-03T11:39:34Z</time>
      </trkpt>
      <trkpt lat="48.05342" lon="-4.71118">
        <ele>23.699219</ele>
        <time>2017-05-03T11:39:51Z</time>
      </trkpt>
      <trkpt lat="48.0534" lon="-4.71089">
        <ele>25.398438</ele>
        <time>2017-05-03T11:40:08Z</time>
      </trkpt>
      <trkpt lat="48.05337" lon="-4.71018">
        <ele>34</ele>
        <time>2017-05-03T11:40:54Z</time>
      </trkpt>
      <trkpt lat="48.05335" lon="-4.71005">
        <ele>32.796875</ele>
        <time>2017-05-03T11:41:04Z</time>
      </trkpt>
      <trkpt lat="48.0533" lon="-4.70993">
        <ele>27.699219</ele>
        <time>2017-05-03T11:41:22Z</time>
      </trkpt>
      <trkpt lat="48.05321" lon="-4.70967">
        <ele>26.199219</ele>
        <time>2017-05-03T11:42:24Z</time>
      </trkpt>
      <trkpt lat="48.05311" lon="-4.70942">
        <ele>31.398438</ele>
        <time>2017-05-03T11:42:41Z</time>
      </trkpt>
      <trkpt lat="48.05305" lon="-4.70931">
        <ele>34.296875</ele>
        <time>2017-05-03T11:42:49Z</time>
      </trkpt>
      <trkpt lat="48.05299" lon="-4.7092">
        <ele>36.5</ele>
        <time>2017-05-03T11:42:58Z</time>
      </trkpt>
      <trkpt lat="48.05293" lon="-4.70907">
        <ele>38.898438</ele>
        <time>2017-05-03T11:43:07Z</time>
      </trkpt>
      <trkpt lat="48.05289" lon="-4.70894">
        <ele>39.296875</ele>
        <time>2017-05-03T11:43:17Z</time>
      </trkpt>
      <trkpt lat="48.05281" lon="-4.70884">
        <ele>37.5</ele>
        <time>2017-05-03T11:43:27Z</time>
      </trkpt>
      <trkpt lat="48.05272" lon="-4.70877">
        <ele>38.097656</ele>
        <time>2017-05-03T11:43:38Z</time>
      </trkpt>
      <trkpt lat="48.05246" lon="-4.7086">
        <ele>41</ele>
        <time>2017-05-03T11:44:04Z</time>
      </trkpt>
      <trkpt lat="48.05236" lon="-4.70855">
        <ele>41.898438</ele>
        <time>2017-05-03T11:44:13Z</time>
      </trkpt>
      <trkpt lat="48.05227" lon="-4.70854">
        <ele>41.398438</ele>
        <time>2017-05-03T11:44:22Z</time>
      </trkpt>
      <trkpt lat="48.05218" lon="-4.70859">
        <ele>41.097656</ele>
        <time>2017-05-03T11:44:31Z</time>
      </trkpt>
      <trkpt lat="48.0521" lon="-4.70867">
        <ele>40.296875</ele>
        <time>2017-05-03T11:44:40Z</time>
      </trkpt>
      <trkpt lat="48.05205" lon="-4.70879">
        <ele>39.398438</ele>
        <time>2017-05-03T11:44:49Z</time>
      </trkpt>
      <trkpt lat="48.05201" lon="-4.70892">
        <ele>37.597656</ele>
        <time>2017-05-03T11:44:58Z</time>
      </trkpt>
      <trkpt lat="48.05195" lon="-4.70903">
        <ele>36</ele>
        <time>2017-05-03T11:45:06Z</time>
      </trkpt>
      <trkpt lat="48.05189" lon="-4.70913">
        <ele>35.296875</ele>
        <time>2017-05-03T11:45:14Z</time>
      </trkpt>
      <trkpt lat="48.05182" lon="-4.70921">
        <ele>35.5</ele>
        <time>2017-05-03T11:45:23Z</time>
      </trkpt>
      <trkpt lat="48.05173" lon="-4.70928">
        <ele>34.398438</ele>
        <time>2017-05-03T11:45:33Z</time>
      </trkpt>
      <trkpt lat="48.05165" lon="-4.70937">
        <ele>33.5</ele>
        <time>2017-05-03T11:45:43Z</time>
      </trkpt>
      <trkpt lat="48.05157" lon="-4.70944">
        <ele>40.5</ele>
        <time>2017-05-03T11:45:52Z</time>
      </trkpt>
      <trkpt lat="48.05148" lon="-4.70939">
        <ele>41</ele>
        <time>2017-05-03T11:50:16Z</time>
      </trkpt>
      <trkpt lat="48.05141" lon="-4.70928">
        <ele>41.699219</ele>
        <time>2017-05-03T11:50:25Z</time>
      </trkpt>
      <trkpt lat="48.05128" lon="-4.70907">
        <ele>42.296875</ele>
        <time>2017-05-03T11:50:44Z</time>
      </trkpt>
      <trkpt lat="48.05121" lon="-4.70898">
        <ele>42.5</ele>
        <time>2017-05-03T11:50:53Z</time>
      </trkpt>
      <trkpt lat="48.05115" lon="-4.70888">
        <ele>43.898438</ele>
        <time>2017-05-03T11:51:03Z</time>
      </trkpt>
      <trkpt lat="48.05102" lon="-4.70866">
        <ele>45.796875</ele>
        <time>2017-05-03T11:51:21Z</time>
      </trkpt>
      <trkpt lat="48.05097" lon="-4.70855">
        <ele>44.097656</ele>
        <time>2017-05-03T11:51:31Z</time>
      </trkpt>
      <trkpt lat="48.05094" lon="-4.70842">
        <ele>44.398438</ele>
        <time>2017-05-03T11:51:43Z</time>
      </trkpt>
      <trkpt lat="48.05091" lon="-4.70828">
        <ele>44.199219</ele>
        <time>2017-05-03T11:51:59Z</time>
      </trkpt>
      <trkpt lat="48.05086" lon="-4.70817">
        <ele>45.796875</ele>
        <time>2017-05-03T11:52:08Z</time>
      </trkpt>
      <trkpt lat="48.05076" lon="-4.70793">
        <ele>45.398438</ele>
        <time>2017-05-03T11:52:27Z</time>
      </trkpt>
      <trkpt lat="48.05069" lon="-4.70783">
        <ele>46.199219</ele>
        <time>2017-05-03T11:52:35Z</time>
      </trkpt>
      <trkpt lat="48.05064" lon="-4.70771">
        <ele>46.097656</ele>
        <time>2017-05-03T11:52:46Z</time>
      </trkpt>
      <trkpt lat="48.05061" lon="-4.70758">
        <ele>47.398438</ele>
        <time>2017-05-03T11:52:55Z</time>
      </trkpt>
      <trkpt lat="48.05059" lon="-4.70744">
        <ele>47.5</ele>
        <time>2017-05-03T11:53:04Z</time>
      </trkpt>
      <trkpt lat="48.05054" lon="-4.70732">
        <ele>43.699219</ele>
        <time>2017-05-03T11:53:13Z</time>
      </trkpt>
      <trkpt lat="48.0505" lon="-4.7072">
        <ele>37.597656</ele>
        <time>2017-05-03T11:53:31Z</time>
      </trkpt>
      <trkpt lat="48.05041" lon="-4.70715">
        <ele>36.199219</ele>
        <time>2017-05-03T11:53:56Z</time>
      </trkpt>
      <trkpt lat="48.05035" lon="-4.70705">
        <ele>34</ele>
        <time>2017-05-03T11:54:12Z</time>
      </trkpt>
      <trkpt lat="48.05029" lon="-4.70694">
        <ele>32.5</ele>
        <time>2017-05-03T11:54:23Z</time>
      </trkpt>
      <trkpt lat="48.05018" lon="-4.70671">
        <ele>29.796875</ele>
        <time>2017-05-03T11:54:43Z</time>
      </trkpt>
      <trkpt lat="48.05013" lon="-4.70659">
        <ele>29.5</ele>
        <time>2017-05-03T11:54:52Z</time>
      </trkpt>
      <trkpt lat="48.04999" lon="-4.70621">
        <ele>24.699219</ele>
        <time>2017-05-03T11:55:24Z</time>
      </trkpt>
      <trkpt lat="48.04992" lon="-4.70613">
        <ele>24.296875</ele>
        <time>2017-05-03T11:55:35Z</time>
      </trkpt>
      <trkpt lat="48.04984" lon="-4.70608">
        <ele>23</ele>
        <time>2017-05-03T11:55:57Z</time>
      </trkpt>
      <trkpt lat="48.04976" lon="-4.70601">
        <ele>21.898438</ele>
        <time>2017-05-03T11:56:11Z</time>
      </trkpt>
      <trkpt lat="48.04971" lon="-4.70589">
        <ele>21.699219</ele>
        <time>2017-05-03T11:56:20Z</time>
      </trkpt>
      <trkpt lat="48.04968" lon="-4.70576">
        <ele>21.097656</ele>
        <time>2017-05-03T11:56:28Z</time>
      </trkpt>
      <trkpt lat="48.04968" lon="-4.70562">
        <ele>16.5</ele>
        <time>2017-05-03T11:56:37Z</time>
      </trkpt>
      <trkpt lat="48.0496" lon="-4.70554">
        <ele>15.796875</ele>
        <time>2017-05-03T11:56:55Z</time>
      </trkpt>
      <trkpt lat="48.04966" lon="-4.70544">
        <ele>16</ele>
        <time>2017-05-03T11:57:08Z</time>
      </trkpt>
      <trkpt lat="48.0497" lon="-4.70532">
        <ele>16.898438</ele>
        <time>2017-05-03T11:57:16Z</time>
      </trkpt>
      <trkpt lat="48.0497" lon="-4.70518">
        <ele>16.898438</ele>
        <time>2017-05-03T11:57:29Z</time>
      </trkpt>
      <trkpt lat="48.04966" lon="-4.70504">
        <ele>18</ele>
        <time>2017-05-03T11:57:38Z</time>
      </trkpt>
      <trkpt lat="48.04962" lon="-4.70491">
        <ele>17.199219</ele>
        <time>2017-05-03T11:57:48Z</time>
      </trkpt>
      <trkpt lat="48.04953" lon="-4.70489">
        <ele>12.398438</ele>
        <time>2017-05-03T11:57:58Z</time>
      </trkpt>
      <trkpt lat="48.04943" lon="-4.70489">
        <ele>11.199219</ele>
        <time>2017-05-03T11:58:09Z</time>
      </trkpt>
      <trkpt lat="48.04934" lon="-4.70491">
        <ele>10.199219</ele>
        <time>2017-05-03T11:58:18Z</time>
      </trkpt>
      <trkpt lat="48.04924" lon="-4.70493">
        <ele>11.296875</ele>
        <time>2017-05-03T11:58:27Z</time>
      </trkpt>
      <trkpt lat="48.04916" lon="-4.705">
        <ele>11.296875</ele>
        <time>2017-05-03T11:58:35Z</time>
      </trkpt>
      <trkpt lat="48.04907" lon="-4.70503">
        <ele>10.796875</ele>
        <time>2017-05-03T11:58:43Z</time>
      </trkpt>
      <trkpt lat="48.04888" lon="-4.70508">
        <ele>8.898438</ele>
        <time>2017-05-03T11:59:00Z</time>
      </trkpt>
      <trkpt lat="48.04878" lon="-4.7051">
        <ele>8.199219</ele>
        <time>2017-05-03T11:59:09Z</time>
      </trkpt>
      <trkpt lat="48.04831" lon="-4.7052">
        <ele>7.699219</ele>
        <time>2017-05-03T11:59:49Z</time>
      </trkpt>
      <trkpt lat="48.04822" lon="-4.70525">
        <ele>7.5</ele>
        <time>2017-05-03T11:59:57Z</time>
      </trkpt>
      <trkpt lat="48.04813" lon="-4.70528">
        <ele>7.699219</ele>
        <time>2017-05-03T12:00:05Z</time>
      </trkpt>
      <trkpt lat="48.04804" lon="-4.7053">
        <ele>6.398438</ele>
        <time>2017-05-03T12:00:13Z</time>
      </trkpt>
      <trkpt lat="48.04795" lon="-4.70531">
        <ele>3.699219</ele>
        <time>2017-05-03T12:00:21Z</time>
      </trkpt>
      <trkpt lat="48.04786" lon="-4.70535">
        <ele>2.796875</ele>
        <time>2017-05-03T12:00:30Z</time>
      </trkpt>
      <trkpt lat="48.04777" lon="-4.70542">
        <ele>2.597656</ele>
        <time>2017-05-03T12:00:38Z</time>
      </trkpt>
      <trkpt lat="48.0476" lon="-4.70555">
        <ele>3.898438</ele>
        <time>2017-05-03T12:00:56Z</time>
      </trkpt>
      <trkpt lat="48.04751" lon="-4.70558">
        <ele>4.5</ele>
        <time>2017-05-03T12:01:05Z</time>
      </trkpt>
      <trkpt lat="48.04742" lon="-4.70558">
        <ele>5.796875</ele>
        <time>2017-05-03T12:01:14Z</time>
      </trkpt>
      <trkpt lat="48.04733" lon="-4.70562">
        <ele>5.5</ele>
        <time>2017-05-03T12:01:24Z</time>
      </trkpt>
      <trkpt lat="48.04695" lon="-4.70574">
        <ele>5.296875</ele>
        <time>2017-05-03T12:02:03Z</time>
      </trkpt>
      <trkpt lat="48.04685" lon="-4.70574">
        <ele>5.699219</ele>
        <time>2017-05-03T12:02:19Z</time>
      </trkpt>
      <trkpt lat="48.04676" lon="-4.70578">
        <ele>6.199219</ele>
        <time>2017-05-03T12:02:29Z</time>
      </trkpt>
      <trkpt lat="48.04666" lon="-4.70581">
        <ele>5.296875</ele>
        <time>2017-05-03T12:02:39Z</time>
      </trkpt>
      <trkpt lat="48.04658" lon="-4.70589">
        <ele>4.296875</ele>
        <time>2017-05-03T12:02:49Z</time>
      </trkpt>
      <trkpt lat="48.0465" lon="-4.70595">
        <ele>5.898438</ele>
        <time>2017-05-03T12:02:59Z</time>
      </trkpt>
      <trkpt lat="48.04641" lon="-4.70593">
        <ele>5.296875</ele>
        <time>2017-05-03T12:03:10Z</time>
      </trkpt>
      <trkpt lat="48.04632" lon="-4.70589">
        <ele>4.398438</ele>
        <time>2017-05-03T12:03:21Z</time>
      </trkpt>
      <trkpt lat="48.04623" lon="-4.70589">
        <ele>2.296875</ele>
        <time>2017-05-03T12:03:30Z</time>
      </trkpt>
      <trkpt lat="48.04613" lon="-4.7059">
        <ele>1.898438</ele>
        <time>2017-05-03T12:03:40Z</time>
      </trkpt>
      <trkpt lat="48.04604" lon="-4.70592">
        <ele>2.097656</ele>
        <time>2017-05-03T12:03:49Z</time>
      </trkpt>
      <trkpt lat="48.04585" lon="-4.706">
        <ele>4.097656</ele>
        <time>2017-05-03T12:04:08Z</time>
      </trkpt>
      <trkpt lat="48.04575" lon="-4.70603">
        <ele>5.199219</ele>
        <time>2017-05-03T12:04:18Z</time>
      </trkpt>
      <trkpt lat="48.04557" lon="-4.70606">
        <ele>6.296875</ele>
        <time>2017-05-03T12:04:38Z</time>
      </trkpt>
      <trkpt lat="48.04548" lon="-4.70611">
        <ele>6</ele>
        <time>2017-05-03T12:04:48Z</time>
      </trkpt>
      <trkpt lat="48.04539" lon="-4.70613">
        <ele>5.796875</ele>
        <time>2017-05-03T12:04:58Z</time>
      </trkpt>
      <trkpt lat="48.0453" lon="-4.7062">
        <ele>6.898438</ele>
        <time>2017-05-03T12:05:08Z</time>
      </trkpt>
      <trkpt lat="48.04521" lon="-4.70622">
        <ele>6.5</ele>
        <time>2017-05-03T12:05:18Z</time>
      </trkpt>
      <trkpt lat="48.04514" lon="-4.70613">
        <ele>1.796875</ele>
        <time>2017-05-03T12:05:30Z</time>
      </trkpt>
      <trkpt lat="48.04505" lon="-4.70614">
        <ele>3</ele>
        <time>2017-05-03T12:07:59Z</time>
      </trkpt>
      <trkpt lat="48.04499" lon="-4.70625">
        <ele>5.199219</ele>
        <time>2017-05-03T12:08:10Z</time>
      </trkpt>
      <trkpt lat="48.04492" lon="-4.70635">
        <ele>7.398438</ele>
        <time>2017-05-03T12:08:21Z</time>
      </trkpt>
      <trkpt lat="48.04484" lon="-4.70643">
        <ele>9.199219</ele>
        <time>2017-05-03T12:08:36Z</time>
      </trkpt>
      <trkpt lat="48.04476" lon="-4.70651">
        <ele>14.597656</ele>
        <time>2017-05-03T12:08:59Z</time>
      </trkpt>
      <trkpt lat="48.0447" lon="-4.70662">
        <ele>20.296875</ele>
        <time>2017-05-03T12:09:20Z</time>
      </trkpt>
      <trkpt lat="48.04463" lon="-4.70673">
        <ele>23</ele>
        <time>2017-05-03T12:09:42Z</time>
      </trkpt>
      <trkpt lat="48.04457" lon="-4.70682">
        <ele>25.296875</ele>
        <time>2017-05-03T12:09:57Z</time>
      </trkpt>
      <trkpt lat="48.04449" lon="-4.70689">
        <ele>31.398438</ele>
        <time>2017-05-03T12:10:12Z</time>
      </trkpt>
      <trkpt lat="48.0444" lon="-4.70692">
        <ele>33.898438</ele>
        <time>2017-05-03T12:10:35Z</time>
      </trkpt>
      <trkpt lat="48.04422" lon="-4.70702">
        <ele>35.265625</ele>
        <time>2017-05-03T12:11:02Z</time>
      </trkpt>
      <trkpt lat="48.04415" lon="-4.70711">
        <ele>33.699219</ele>
        <time>2017-05-03T12:11:18Z</time>
      </trkpt>
      <trkpt lat="48.04408" lon="-4.70719">
        <ele>35.796875</ele>
        <time>2017-05-03T12:12:39Z</time>
      </trkpt>
      <trkpt lat="48.04398" lon="-4.70722">
        <ele>38.796875</ele>
        <time>2017-05-03T12:12:48Z</time>
      </trkpt>
      <trkpt lat="48.04389" lon="-4.70724">
        <ele>40.5</ele>
        <time>2017-05-03T12:13:00Z</time>
      </trkpt>
      <trkpt lat="48.04382" lon="-4.70733">
        <ele>41.199219</ele>
        <time>2017-05-03T12:13:10Z</time>
      </trkpt>
      <trkpt lat="48.04374" lon="-4.70742">
        <ele>42.199219</ele>
        <time>2017-05-03T12:13:20Z</time>
      </trkpt>
      <trkpt lat="48.04365" lon="-4.7075">
        <ele>43</ele>
        <time>2017-05-03T12:13:30Z</time>
      </trkpt>
      <trkpt lat="48.04359" lon="-4.7076">
        <ele>41.296875</ele>
        <time>2017-05-03T12:13:40Z</time>
      </trkpt>
      <trkpt lat="48.04356" lon="-4.70774">
        <ele>41.199219</ele>
        <time>2017-05-03T12:13:49Z</time>
      </trkpt>
      <trkpt lat="48.04351" lon="-4.70785">
        <ele>40.296875</ele>
        <time>2017-05-03T12:13:59Z</time>
      </trkpt>
      <trkpt lat="48.04348" lon="-4.70799">
        <ele>40.097656</ele>
        <time>2017-05-03T12:14:10Z</time>
      </trkpt>
      <trkpt lat="48.04343" lon="-4.70811">
        <ele>39.597656</ele>
        <time>2017-05-03T12:14:18Z</time>
      </trkpt>
      <trkpt lat="48.04339" lon="-4.70824">
        <ele>40.296875</ele>
        <time>2017-05-03T12:14:26Z</time>
      </trkpt>
      <trkpt lat="48.04335" lon="-4.70837">
        <ele>41.597656</ele>
        <time>2017-05-03T12:14:34Z</time>
      </trkpt>
      <trkpt lat="48.04331" lon="-4.70848">
        <ele>43.699219</ele>
        <time>2017-05-03T12:14:42Z</time>
      </trkpt>
      <trkpt lat="48.0432" lon="-4.70871">
        <ele>46.699219</ele>
        <time>2017-05-03T12:15:00Z</time>
      </trkpt>
      <trkpt lat="48.04318" lon="-4.70886">
        <ele>47.699219</ele>
        <time>2017-05-03T12:15:09Z</time>
      </trkpt>
      <trkpt lat="48.04314" lon="-4.709">
        <ele>47.898438</ele>
        <time>2017-05-03T12:15:18Z</time>
      </trkpt>
      <trkpt lat="48.04301" lon="-4.7094">
        <ele>49.898438</ele>
        <time>2017-05-03T12:15:45Z</time>
      </trkpt>
      <trkpt lat="48.04292" lon="-4.70944">
        <ele>49.5</ele>
        <time>2017-05-03T12:15:56Z</time>
      </trkpt>
      <trkpt lat="48.04285" lon="-4.70952">
        <ele>49.597656</ele>
        <time>2017-05-03T12:16:06Z</time>
      </trkpt>
      <trkpt lat="48.04278" lon="-4.70961">
        <ele>49.097656</ele>
        <time>2017-05-03T12:16:15Z</time>
      </trkpt>
      <trkpt lat="48.04276" lon="-4.70975">
        <ele>49.5</ele>
        <time>2017-05-03T12:16:24Z</time>
      </trkpt>
      <trkpt lat="48.04277" lon="-4.70989">
        <ele>48.296875</ele>
        <time>2017-05-03T12:16:36Z</time>
      </trkpt>
      <trkpt lat="48.04276" lon="-4.71002">
        <ele>46.5</ele>
        <time>2017-05-03T12:16:50Z</time>
      </trkpt>
      <trkpt lat="48.04275" lon="-4.71016">
        <ele>44.699219</ele>
        <time>2017-05-03T12:17:03Z</time>
      </trkpt>
      <trkpt lat="48.04273" lon="-4.7103">
        <ele>44</ele>
        <time>2017-05-03T12:17:15Z</time>
      </trkpt>
      <trkpt lat="48.04269" lon="-4.71043">
        <ele>43.796875</ele>
        <time>2017-05-03T12:17:24Z</time>
      </trkpt>
      <trkpt lat="48.04264" lon="-4.71055">
        <ele>43.699219</ele>
        <time>2017-05-03T12:17:32Z</time>
      </trkpt>
      <trkpt lat="48.04262" lon="-4.71069">
        <ele>42.5</ele>
        <time>2017-05-03T12:17:43Z</time>
      </trkpt>
      <trkpt lat="48.04252" lon="-4.71109">
        <ele>33.296875</ele>
        <time>2017-05-03T12:18:10Z</time>
      </trkpt>
      <trkpt lat="48.04244" lon="-4.71117">
        <ele>32.699219</ele>
        <time>2017-05-03T12:19:33Z</time>
      </trkpt>
      <trkpt lat="48.04227" lon="-4.71131">
        <ele>31.898438</ele>
        <time>2017-05-03T12:19:49Z</time>
      </trkpt>
      <trkpt lat="48.0422" lon="-4.71139">
        <ele>33.097656</ele>
        <time>2017-05-03T12:19:57Z</time>
      </trkpt>
      <trkpt lat="48.04211" lon="-4.71144">
        <ele>35.398438</ele>
        <time>2017-05-03T12:20:06Z</time>
      </trkpt>
      <trkpt lat="48.04194" lon="-4.71157">
        <ele>41.097656</ele>
        <time>2017-05-03T12:20:24Z</time>
      </trkpt>
      <trkpt lat="48.04177" lon="-4.71171">
        <ele>45.199219</ele>
        <time>2017-05-03T12:20:40Z</time>
      </trkpt>
      <trkpt lat="48.04173" lon="-4.71183">
        <ele>43.898438</ele>
        <time>2017-05-03T12:20:50Z</time>
      </trkpt>
      <trkpt lat="48.04172" lon="-4.71197">
        <ele>42.296875</ele>
        <time>2017-05-03T12:21:00Z</time>
      </trkpt>
      <trkpt lat="48.04171" lon="-4.71211">
        <ele>41.097656</ele>
        <time>2017-05-03T12:21:11Z</time>
      </trkpt>
      <trkpt lat="48.04168" lon="-4.71225">
        <ele>39.796875</ele>
        <time>2017-05-03T12:21:21Z</time>
      </trkpt>
      <trkpt lat="48.04165" lon="-4.71238">
        <ele>39.898438</ele>
        <time>2017-05-03T12:21:31Z</time>
      </trkpt>
      <trkpt lat="48.04159" lon="-4.71248">
        <ele>40</ele>
        <time>2017-05-03T12:21:39Z</time>
      </trkpt>
      <trkpt lat="48.04152" lon="-4.71257">
        <ele>39.898438</ele>
        <time>2017-05-03T12:21:48Z</time>
      </trkpt>
      <trkpt lat="48.04144" lon="-4.71265">
        <ele>40.398438</ele>
        <time>2017-05-03T12:21:56Z</time>
      </trkpt>
      <trkpt lat="48.04137" lon="-4.71274">
        <ele>39.296875</ele>
        <time>2017-05-03T12:22:04Z</time>
      </trkpt>
      <trkpt lat="48.04133" lon="-4.71287">
        <ele>38.699219</ele>
        <time>2017-05-03T12:22:13Z</time>
      </trkpt>
      <trkpt lat="48.04129" lon="-4.71299">
        <ele>38.296875</ele>
        <time>2017-05-03T12:22:22Z</time>
      </trkpt>
      <trkpt lat="48.04128" lon="-4.71314">
        <ele>37.296875</ele>
        <time>2017-05-03T12:22:31Z</time>
      </trkpt>
      <trkpt lat="48.04131" lon="-4.71328">
        <ele>36.796875</ele>
        <time>2017-05-03T12:22:41Z</time>
      </trkpt>
      <trkpt lat="48.04133" lon="-4.71341">
        <ele>34.898438</ele>
        <time>2017-05-03T12:22:52Z</time>
      </trkpt>
      <trkpt lat="48.04132" lon="-4.71356">
        <ele>35.097656</ele>
        <time>2017-05-03T12:23:00Z</time>
      </trkpt>
      <trkpt lat="48.04132" lon="-4.71371">
        <ele>35.296875</ele>
        <time>2017-05-03T12:23:09Z</time>
      </trkpt>
      <trkpt lat="48.04132" lon="-4.71385">
        <ele>36</ele>
        <time>2017-05-03T12:23:17Z</time>
      </trkpt>
      <trkpt lat="48.04129" lon="-4.71398">
        <ele>36.5</ele>
        <time>2017-05-03T12:23:26Z</time>
      </trkpt>
      <trkpt lat="48.04124" lon="-4.71411">
        <ele>37.597656</ele>
        <time>2017-05-03T12:23:35Z</time>
      </trkpt>
      <trkpt lat="48.04116" lon="-4.71437">
        <ele>35.097656</ele>
        <time>2017-05-03T12:23:52Z</time>
      </trkpt>
      <trkpt lat="48.04114" lon="-4.71451">
        <ele>35.398438</ele>
        <time>2017-05-03T12:24:00Z</time>
      </trkpt>
      <trkpt lat="48.04114" lon="-4.71464">
        <ele>37.398438</ele>
        <time>2017-05-03T12:24:08Z</time>
      </trkpt>
      <trkpt lat="48.04119" lon="-4.71477">
        <ele>38.699219</ele>
        <time>2017-05-03T12:24:17Z</time>
      </trkpt>
      <trkpt lat="48.04126" lon="-4.71489">
        <ele>38.898438</ele>
        <time>2017-05-03T12:24:25Z</time>
      </trkpt>
      <trkpt lat="48.0413" lon="-4.71502">
        <ele>39.398438</ele>
        <time>2017-05-03T12:24:33Z</time>
      </trkpt>
      <trkpt lat="48.04132" lon="-4.71516">
        <ele>41.097656</ele>
        <time>2017-05-03T12:24:41Z</time>
      </trkpt>
      <trkpt lat="48.04131" lon="-4.7153">
        <ele>42</ele>
        <time>2017-05-03T12:24:50Z</time>
      </trkpt>
      <trkpt lat="48.04127" lon="-4.71542">
        <ele>44</ele>
        <time>2017-05-03T12:24:59Z</time>
      </trkpt>
      <trkpt lat="48.04123" lon="-4.71555">
        <ele>46.597656</ele>
        <time>2017-05-03T12:25:09Z</time>
      </trkpt>
      <trkpt lat="48.04124" lon="-4.71569">
        <ele>47.296875</ele>
        <time>2017-05-03T12:25:19Z</time>
      </trkpt>
      <trkpt lat="48.04124" lon="-4.71597">
        <ele>50.796875</ele>
        <time>2017-05-03T12:25:39Z</time>
      </trkpt>
      <trkpt lat="48.04122" lon="-4.7161">
        <ele>51.199219</ele>
        <time>2017-05-03T12:25:50Z</time>
      </trkpt>
      <trkpt lat="48.04124" lon="-4.71625">
        <ele>52.699219</ele>
        <time>2017-05-03T12:26:00Z</time>
      </trkpt>
      <trkpt lat="48.04123" lon="-4.71639">
        <ele>53.199219</ele>
        <time>2017-05-03T12:26:10Z</time>
      </trkpt>
      <trkpt lat="48.04127" lon="-4.71652">
        <ele>51.097656</ele>
        <time>2017-05-03T12:26:20Z</time>
      </trkpt>
      <trkpt lat="48.04127" lon="-4.71666">
        <ele>47.566406</ele>
        <time>2017-05-03T12:26:32Z</time>
      </trkpt>
      <trkpt lat="48.04128" lon="-4.71679">
        <ele>42.5</ele>
        <time>2017-05-03T12:26:53Z</time>
      </trkpt>
      <trkpt lat="48.04131" lon="-4.71693">
        <ele>41.5</ele>
        <time>2017-05-03T12:28:05Z</time>
      </trkpt>
      <trkpt lat="48.04133" lon="-4.71707">
        <ele>40.097656</ele>
        <time>2017-05-03T12:28:19Z</time>
      </trkpt>
      <trkpt lat="48.04143" lon="-4.71747">
        <ele>38.796875</ele>
        <time>2017-05-03T12:28:44Z</time>
      </trkpt>
      <trkpt lat="48.04148" lon="-4.7176">
        <ele>39</ele>
        <time>2017-05-03T12:28:53Z</time>
      </trkpt>
      <trkpt lat="48.04153" lon="-4.71771">
        <ele>37.898438</ele>
        <time>2017-05-03T12:29:01Z</time>
      </trkpt>
      <trkpt lat="48.0417" lon="-4.71807">
        <ele>37</ele>
        <time>2017-05-03T12:29:26Z</time>
      </trkpt>
      <trkpt lat="48.04176" lon="-4.71817">
        <ele>35.796875</ele>
        <time>2017-05-03T12:29:34Z</time>
      </trkpt>
      <trkpt lat="48.0418" lon="-4.71829">
        <ele>35.597656</ele>
        <time>2017-05-03T12:29:42Z</time>
      </trkpt>
      <trkpt lat="48.04183" lon="-4.71843">
        <ele>34.796875</ele>
        <time>2017-05-03T12:29:50Z</time>
      </trkpt>
      <trkpt lat="48.04184" lon="-4.71858">
        <ele>35.199219</ele>
        <time>2017-05-03T12:29:59Z</time>
      </trkpt>
      <trkpt lat="48.04181" lon="-4.71871">
        <ele>37</ele>
        <time>2017-05-03T12:30:07Z</time>
      </trkpt>
      <trkpt lat="48.04179" lon="-4.71885">
        <ele>38.398438</ele>
        <time>2017-05-03T12:30:16Z</time>
      </trkpt>
      <trkpt lat="48.04178" lon="-4.71899">
        <ele>39.296875</ele>
        <time>2017-05-03T12:30:24Z</time>
      </trkpt>
      <trkpt lat="48.04178" lon="-4.71913">
        <ele>40.296875</ele>
        <time>2017-05-03T12:30:33Z</time>
      </trkpt>
      <trkpt lat="48.04179" lon="-4.71942">
        <ele>33.199219</ele>
        <time>2017-05-03T12:30:52Z</time>
      </trkpt>
      <trkpt lat="48.04173" lon="-4.71953">
        <ele>31.898438</ele>
        <time>2017-05-03T12:32:31Z</time>
      </trkpt>
      <trkpt lat="48.04163" lon="-4.71957">
        <ele>30.796875</ele>
        <time>2017-05-03T12:32:40Z</time>
      </trkpt>
      <trkpt lat="48.04154" lon="-4.71958">
        <ele>31.097656</ele>
        <time>2017-05-03T12:32:48Z</time>
      </trkpt>
      <trkpt lat="48.04144" lon="-4.71958">
        <ele>31.898438</ele>
        <time>2017-05-03T12:33:04Z</time>
      </trkpt>
      <trkpt lat="48.04134" lon="-4.7196">
        <ele>32.296875</ele>
        <time>2017-05-03T12:33:13Z</time>
      </trkpt>
      <trkpt lat="48.04125" lon="-4.71965">
        <ele>33.199219</ele>
        <time>2017-05-03T12:33:21Z</time>
      </trkpt>
      <trkpt lat="48.04115" lon="-4.7197">
        <ele>34.796875</ele>
        <time>2017-05-03T12:33:29Z</time>
      </trkpt>
      <trkpt lat="48.04106" lon="-4.71974">
        <ele>36.296875</ele>
        <time>2017-05-03T12:33:37Z</time>
      </trkpt>
      <trkpt lat="48.04097" lon="-4.7198">
        <ele>36.398438</ele>
        <time>2017-05-03T12:33:45Z</time>
      </trkpt>
      <trkpt lat="48.04088" lon="-4.71984">
        <ele>39.398438</ele>
        <time>2017-05-03T12:33:54Z</time>
      </trkpt>
      <trkpt lat="48.04079" lon="-4.71986">
        <ele>41.699219</ele>
        <time>2017-05-03T12:34:08Z</time>
      </trkpt>
      <trkpt lat="48.0407" lon="-4.71987">
        <ele>45.199219</ele>
        <time>2017-05-03T12:34:26Z</time>
      </trkpt>
      <trkpt lat="48.04062" lon="-4.71991">
        <ele>50.097656</ele>
        <time>2017-05-03T12:34:38Z</time>
      </trkpt>
      <trkpt lat="48.04044" lon="-4.71999">
        <ele>51</ele>
        <time>2017-05-03T12:35:02Z</time>
      </trkpt>
      <trkpt lat="48.04035" lon="-4.72006">
        <ele>50.699219</ele>
        <time>2017-05-03T12:35:11Z</time>
      </trkpt>
      <trkpt lat="48.04029" lon="-4.72017">
        <ele>50.398438</ele>
        <time>2017-05-03T12:35:21Z</time>
      </trkpt>
      <trkpt lat="48.04028" lon="-4.72031">
        <ele>51</ele>
        <time>2017-05-03T12:35:30Z</time>
      </trkpt>
      <trkpt lat="48.04026" lon="-4.72044">
        <ele>52.699219</ele>
        <time>2017-05-03T12:35:39Z</time>
      </trkpt>
      <trkpt lat="48.04025" lon="-4.72058">
        <ele>54.398438</ele>
        <time>2017-05-03T12:35:49Z</time>
      </trkpt>
      <trkpt lat="48.04022" lon="-4.72072">
        <ele>55.898438</ele>
        <time>2017-05-03T12:35:59Z</time>
      </trkpt>
      <trkpt lat="48.04019" lon="-4.72086">
        <ele>57.597656</ele>
        <time>2017-05-03T12:36:15Z</time>
      </trkpt>
      <trkpt lat="48.0402" lon="-4.721">
        <ele>57.898438</ele>
        <time>2017-05-03T12:36:26Z</time>
      </trkpt>
      <trkpt lat="48.04024" lon="-4.72142">
        <ele>55.898438</ele>
        <time>2017-05-03T12:37:06Z</time>
      </trkpt>
      <trkpt lat="48.04026" lon="-4.72155">
        <ele>56.199219</ele>
        <time>2017-05-03T12:37:14Z</time>
      </trkpt>
      <trkpt lat="48.0403" lon="-4.72168">
        <ele>58.398438</ele>
        <time>2017-05-03T12:37:23Z</time>
      </trkpt>
      <trkpt lat="48.04037" lon="-4.72179">
        <ele>59.296875</ele>
        <time>2017-05-03T12:37:34Z</time>
      </trkpt>
      <trkpt lat="48.04044" lon="-4.7219">
        <ele>59.199219</ele>
        <time>2017-05-03T12:37:43Z</time>
      </trkpt>
      <trkpt lat="48.04051" lon="-4.72199">
        <ele>58.796875</ele>
        <time>2017-05-03T12:37:53Z</time>
      </trkpt>
      <trkpt lat="48.04053" lon="-4.72212">
        <ele>58.5</ele>
        <time>2017-05-03T12:38:01Z</time>
      </trkpt>
      <trkpt lat="48.04057" lon="-4.72224">
        <ele>57.296875</ele>
        <time>2017-05-03T12:38:09Z</time>
      </trkpt>
      <trkpt lat="48.04056" lon="-4.72239">
        <ele>57</ele>
        <time>2017-05-03T12:38:18Z</time>
      </trkpt>
      <trkpt lat="48.04054" lon="-4.72253">
        <ele>56.296875</ele>
        <time>2017-05-03T12:38:27Z</time>
      </trkpt>
      <trkpt lat="48.04051" lon="-4.72266">
        <ele>55.097656</ele>
        <time>2017-05-03T12:38:39Z</time>
      </trkpt>
      <trkpt lat="48.04045" lon="-4.72294">
        <ele>58.199219</ele>
        <time>2017-05-03T12:38:58Z</time>
      </trkpt>
      <trkpt lat="48.04044" lon="-4.72308">
        <ele>59.097656</ele>
        <time>2017-05-03T12:39:07Z</time>
      </trkpt>
      <trkpt lat="48.04044" lon="-4.72322">
        <ele>58.097656</ele>
        <time>2017-05-03T12:39:17Z</time>
      </trkpt>
      <trkpt lat="48.04045" lon="-4.72336">
        <ele>58.398438</ele>
        <time>2017-05-03T12:39:26Z</time>
      </trkpt>
      <trkpt lat="48.0404" lon="-4.72348">
        <ele>58.097656</ele>
        <time>2017-05-03T12:40:37Z</time>
      </trkpt>
      <trkpt lat="48.04036" lon="-4.7236">
        <ele>58.597656</ele>
        <time>2017-05-03T12:40:47Z</time>
      </trkpt>
      <trkpt lat="48.04033" lon="-4.72374">
        <ele>60.597656</ele>
        <time>2017-05-03T12:40:55Z</time>
      </trkpt>
      <trkpt lat="48.04033" lon="-4.72389">
        <ele>62.398438</ele>
        <time>2017-05-03T12:41:04Z</time>
      </trkpt>
      <trkpt lat="48.04031" lon="-4.72403">
        <ele>63</ele>
        <time>2017-05-03T12:41:14Z</time>
      </trkpt>
      <trkpt lat="48.04025" lon="-4.72414">
        <ele>63.699219</ele>
        <time>2017-05-03T12:41:26Z</time>
      </trkpt>
      <trkpt lat="48.0402" lon="-4.72426">
        <ele>63.296875</ele>
        <time>2017-05-03T12:41:37Z</time>
      </trkpt>
      <trkpt lat="48.04017" lon="-4.7244">
        <ele>65</ele>
        <time>2017-05-03T12:41:46Z</time>
      </trkpt>
      <trkpt lat="48.0401" lon="-4.7245">
        <ele>66.097656</ele>
        <time>2017-05-03T12:41:56Z</time>
      </trkpt>
      <trkpt lat="48.04005" lon="-4.72462">
        <ele>67.597656</ele>
        <time>2017-05-03T12:42:05Z</time>
      </trkpt>
      <trkpt lat="48.04002" lon="-4.72476">
        <ele>67.097656</ele>
        <time>2017-05-03T12:42:37Z</time>
      </trkpt>
      <trkpt lat="48.04002" lon="-4.72491">
        <ele>67.296875</ele>
        <time>2017-05-03T12:42:46Z</time>
      </trkpt>
      <trkpt lat="48.04004" lon="-4.72575">
        <ele>67.796875</ele>
        <time>2017-05-03T12:43:36Z</time>
      </trkpt>
      <trkpt lat="48.04003" lon="-4.72589">
        <ele>68.199219</ele>
        <time>2017-05-03T12:43:44Z</time>
      </trkpt>
      <trkpt lat="48.04001" lon="-4.72618">
        <ele>67.199219</ele>
        <time>2017-05-03T12:44:02Z</time>
      </trkpt>
      <trkpt lat="48.04001" lon="-4.72632">
        <ele>67.097656</ele>
        <time>2017-05-03T12:44:10Z</time>
      </trkpt>
      <trkpt lat="48.04001" lon="-4.72659">
        <ele>65.5</ele>
        <time>2017-05-03T12:44:26Z</time>
      </trkpt>
      <trkpt lat="48.04003" lon="-4.72673">
        <ele>65.097656</ele>
        <time>2017-05-03T12:44:34Z</time>
      </trkpt>
      <trkpt lat="48.04004" lon="-4.72688">
        <ele>64.5</ele>
        <time>2017-05-03T12:44:43Z</time>
      </trkpt>
      <trkpt lat="48.04002" lon="-4.72702">
        <ele>63.296875</ele>
        <time>2017-05-03T12:44:52Z</time>
      </trkpt>
      <trkpt lat="48.03998" lon="-4.7273">
        <ele>63.699219</ele>
        <time>2017-05-03T12:45:09Z</time>
      </trkpt>
      <trkpt lat="48.03999" lon="-4.72744">
        <ele>63.5</ele>
        <time>2017-05-03T12:45:18Z</time>
      </trkpt>
      <trkpt lat="48.03999" lon="-4.72758">
        <ele>64</ele>
        <time>2017-05-03T12:45:31Z</time>
      </trkpt>
      <trkpt lat="48.03997" lon="-4.72772">
        <ele>63.699219</ele>
        <time>2017-05-03T12:45:40Z</time>
      </trkpt>
      <trkpt lat="48.03998" lon="-4.72786">
        <ele>64.097656</ele>
        <time>2017-05-03T12:45:48Z</time>
      </trkpt>
      <trkpt lat="48.03996" lon="-4.72799">
        <ele>64.097656</ele>
        <time>2017-05-03T12:45:56Z</time>
      </trkpt>
      <trkpt lat="48.03992" lon="-4.72827">
        <ele>63.398438</ele>
        <time>2017-05-03T12:46:12Z</time>
      </trkpt>
      <trkpt lat="48.03992" lon="-4.7284">
        <ele>63.898438</ele>
        <time>2017-05-03T12:46:20Z</time>
      </trkpt>
      <trkpt lat="48.03991" lon="-4.7287">
        <ele>63.5</ele>
        <time>2017-05-03T12:46:37Z</time>
      </trkpt>
      <trkpt lat="48.03992" lon="-4.72884">
        <ele>63.796875</ele>
        <time>2017-05-03T12:46:45Z</time>
      </trkpt>
      <trkpt lat="48.03991" lon="-4.72897">
        <ele>64.5</ele>
        <time>2017-05-03T12:46:53Z</time>
      </trkpt>
      <trkpt lat="48.03989" lon="-4.72912">
        <ele>65</ele>
        <time>2017-05-03T12:47:02Z</time>
      </trkpt>
      <trkpt lat="48.03989" lon="-4.72926">
        <ele>65.5</ele>
        <time>2017-05-03T12:47:10Z</time>
      </trkpt>
      <trkpt lat="48.03989" lon="-4.7294">
        <ele>64.097656</ele>
        <time>2017-05-03T12:47:18Z</time>
      </trkpt>
      <trkpt lat="48.03994" lon="-4.72953">
        <ele>63</ele>
        <time>2017-05-03T12:47:28Z</time>
      </trkpt>
      <trkpt lat="48.03996" lon="-4.72966">
        <ele>63.699219</ele>
        <time>2017-05-03T12:47:36Z</time>
      </trkpt>
      <trkpt lat="48.03996" lon="-4.72981">
        <ele>64</ele>
        <time>2017-05-03T12:47:45Z</time>
      </trkpt>
      <trkpt lat="48.03995" lon="-4.72994">
        <ele>66.199219</ele>
        <time>2017-05-03T12:47:54Z</time>
      </trkpt>
      <trkpt lat="48.03995" lon="-4.73008">
        <ele>68.5</ele>
        <time>2017-05-03T12:48:04Z</time>
      </trkpt>
      <trkpt lat="48.0399" lon="-4.7302">
        <ele>69.898438</ele>
        <time>2017-05-03T12:48:15Z</time>
      </trkpt>
      <trkpt lat="48.03982" lon="-4.73028">
        <ele>71</ele>
        <time>2017-05-03T12:48:26Z</time>
      </trkpt>
      <trkpt lat="48.03975" lon="-4.73038">
        <ele>71.898438</ele>
        <time>2017-05-03T12:48:36Z</time>
      </trkpt>
      <trkpt lat="48.03955" lon="-4.73068">
        <ele>69.597656</ele>
        <time>2017-05-03T12:49:03Z</time>
      </trkpt>
      <trkpt lat="48.03948" lon="-4.73079">
        <ele>70.097656</ele>
        <time>2017-05-03T12:49:12Z</time>
      </trkpt>
      <trkpt lat="48.03942" lon="-4.73091">
        <ele>69</ele>
        <time>2017-05-03T12:49:21Z</time>
      </trkpt>
      <trkpt lat="48.03938" lon="-4.73104">
        <ele>67.699219</ele>
        <time>2017-05-03T12:49:30Z</time>
      </trkpt>
      <trkpt lat="48.03935" lon="-4.73118">
        <ele>68</ele>
        <time>2017-05-03T12:49:39Z</time>
      </trkpt>
      <trkpt lat="48.03934" lon="-4.73132">
        <ele>69.296875</ele>
        <time>2017-05-03T12:49:48Z</time>
      </trkpt>
      <trkpt lat="48.03931" lon="-4.73146">
        <ele>70.097656</ele>
        <time>2017-05-03T12:49:57Z</time>
      </trkpt>
      <trkpt lat="48.03935" lon="-4.73159">
        <ele>67.5</ele>
        <time>2017-05-03T12:50:08Z</time>
      </trkpt>
      <trkpt lat="48.0394" lon="-4.73171">
        <ele>66</ele>
        <time>2017-05-03T12:50:17Z</time>
      </trkpt>
      <trkpt lat="48.03943" lon="-4.73184">
        <ele>66.796875</ele>
        <time>2017-05-03T12:50:26Z</time>
      </trkpt>
      <trkpt lat="48.03957" lon="-4.73253">
        <ele>69.097656</ele>
        <time>2017-05-03T12:51:11Z</time>
      </trkpt>
      <trkpt lat="48.03961" lon="-4.73266">
        <ele>67.796875</ele>
        <time>2017-05-03T12:51:20Z</time>
      </trkpt>
      <trkpt lat="48.03968" lon="-4.73276">
        <ele>66.699219</ele>
        <time>2017-05-03T12:51:29Z</time>
      </trkpt>
      <trkpt lat="48.03975" lon="-4.73285">
        <ele>64.898438</ele>
        <time>2017-05-03T12:51:37Z</time>
      </trkpt>
      <trkpt lat="48.03982" lon="-4.73296">
        <ele>63.898438</ele>
        <time>2017-05-03T12:51:46Z</time>
      </trkpt>
      <trkpt lat="48.03985" lon="-4.73309">
        <ele>64.699219</ele>
        <time>2017-05-03T12:51:54Z</time>
      </trkpt>
      <trkpt lat="48.03986" lon="-4.73323">
        <ele>65.398438</ele>
        <time>2017-05-03T12:52:02Z</time>
      </trkpt>
      <trkpt lat="48.03985" lon="-4.73336">
        <ele>65.097656</ele>
        <time>2017-05-03T12:52:10Z</time>
      </trkpt>
      <trkpt lat="48.03984" lon="-4.7335">
        <ele>65.898438</ele>
        <time>2017-05-03T12:52:18Z</time>
      </trkpt>
      <trkpt lat="48.03981" lon="-4.73364">
        <ele>65.199219</ele>
        <time>2017-05-03T12:52:27Z</time>
      </trkpt>
      <trkpt lat="48.03976" lon="-4.73375">
        <ele>66.097656</ele>
        <time>2017-05-03T12:52:35Z</time>
      </trkpt>
      <trkpt lat="48.03961" lon="-4.73411">
        <ele>67.296875</ele>
        <time>2017-05-03T12:53:02Z</time>
      </trkpt>
      <trkpt lat="48.03959" lon="-4.73424">
        <ele>66.398438</ele>
        <time>2017-05-03T12:53:11Z</time>
      </trkpt>
      <trkpt lat="48.03959" lon="-4.73439">
        <ele>65.199219</ele>
        <time>2017-05-03T12:53:20Z</time>
      </trkpt>
      <trkpt lat="48.03961" lon="-4.73453">
        <ele>63.199219</ele>
        <time>2017-05-03T12:53:29Z</time>
      </trkpt>
      <trkpt lat="48.03964" lon="-4.73467">
        <ele>61.597656</ele>
        <time>2017-05-03T12:53:45Z</time>
      </trkpt>
      <trkpt lat="48.03982" lon="-4.73548">
        <ele>56.898438</ele>
        <time>2017-05-03T12:54:40Z</time>
      </trkpt>
      <trkpt lat="48.03983" lon="-4.73562">
        <ele>58.398438</ele>
        <time>2017-05-03T12:54:50Z</time>
      </trkpt>
      <trkpt lat="48.03977" lon="-4.73573">
        <ele>54</ele>
        <time>2017-05-03T12:55:04Z</time>
      </trkpt>
      <trkpt lat="48.03976" lon="-4.73587">
        <ele>54.5</ele>
        <time>2017-05-03T12:55:46Z</time>
      </trkpt>
      <trkpt lat="48.0397" lon="-4.73598">
        <ele>52.796875</ele>
        <time>2017-05-03T12:56:01Z</time>
      </trkpt>
      <trkpt lat="48.03968" lon="-4.73612">
        <ele>51.597656</ele>
        <time>2017-05-03T13:04:35Z</time>
      </trkpt>
      <trkpt lat="48.0397" lon="-4.73625">
        <ele>50</ele>
        <time>2017-05-03T13:04:46Z</time>
      </trkpt>
      <trkpt lat="48.03973" lon="-4.73639">
        <ele>50.199219</ele>
        <time>2017-05-03T13:04:57Z</time>
      </trkpt>
      <trkpt lat="48.03973" lon="-4.73653">
        <ele>50.898438</ele>
        <time>2017-05-03T13:05:10Z</time>
      </trkpt>
      <trkpt lat="48.03974" lon="-4.73666">
        <ele>48.597656</ele>
        <time>2017-05-03T13:05:32Z</time>
      </trkpt>
      <trkpt lat="48.03974" lon="-4.7368">
        <ele>47.097656</ele>
        <time>2017-05-03T13:05:46Z</time>
      </trkpt>
      <trkpt lat="48.03978" lon="-4.73695">
        <ele>50.046875</ele>
        <time>2017-05-03T13:06:13Z</time>
      </trkpt>
      <trkpt lat="48.0398" lon="-4.73682">
        <ele>52.398438</ele>
        <time>2017-05-03T13:07:14Z</time>
      </trkpt>
      <trkpt lat="48.03979" lon="-4.73668">
        <ele>51.398438</ele>
        <time>2017-05-03T13:09:00Z</time>
      </trkpt>
      <trkpt lat="48.0398" lon="-4.73654">
        <ele>50.5</ele>
        <time>2017-05-03T13:09:15Z</time>
      </trkpt>
      <trkpt lat="48.03979" lon="-4.7364">
        <ele>49.296875</ele>
        <time>2017-05-03T13:09:27Z</time>
      </trkpt>
      <trkpt lat="48.03974" lon="-4.73628">
        <ele>49.296875</ele>
        <time>2017-05-03T13:09:39Z</time>
      </trkpt>
      <trkpt lat="48.03972" lon="-4.73615">
        <ele>48.597656</ele>
        <time>2017-05-03T13:09:50Z</time>
      </trkpt>
      <trkpt lat="48.03966" lon="-4.73604">
        <ele>50</ele>
        <time>2017-05-03T13:10:01Z</time>
      </trkpt>
      <trkpt lat="48.0396" lon="-4.73592">
        <ele>50.597656</ele>
        <time>2017-05-03T13:10:13Z</time>
      </trkpt>
      <trkpt lat="48.03952" lon="-4.73585">
        <ele>53.097656</ele>
        <time>2017-05-03T13:10:23Z</time>
      </trkpt>
      <trkpt lat="48.03945" lon="-4.73576">
        <ele>54.398438</ele>
        <time>2017-05-03T13:10:33Z</time>
      </trkpt>
      <trkpt lat="48.03942" lon="-4.73563">
        <ele>56.648438</ele>
        <time>2017-05-03T13:10:44Z</time>
      </trkpt>
      <trkpt lat="48.03938" lon="-4.73552">
        <ele>56.597656</ele>
        <time>2017-05-03T13:10:59Z</time>
      </trkpt>
      <trkpt lat="48.03914" lon="-4.73491">
        <ele>58.398438</ele>
        <time>2017-05-03T13:11:57Z</time>
      </trkpt>
      <trkpt lat="48.03912" lon="-4.73477">
        <ele>59.097656</ele>
        <time>2017-05-03T13:12:08Z</time>
      </trkpt>
      <trkpt lat="48.03912" lon="-4.73463">
        <ele>62.097656</ele>
        <time>2017-05-03T13:12:22Z</time>
      </trkpt>
      <trkpt lat="48.03904" lon="-4.73455">
        <ele>59.296875</ele>
        <time>2017-05-03T13:12:43Z</time>
      </trkpt>
      <trkpt lat="48.03907" lon="-4.73442">
        <ele>57.597656</ele>
        <time>2017-05-03T13:13:43Z</time>
      </trkpt>
      <trkpt lat="48.03908" lon="-4.73428">
        <ele>55.796875</ele>
        <time>2017-05-03T13:13:52Z</time>
      </trkpt>
      <trkpt lat="48.03906" lon="-4.73414">
        <ele>56.898438</ele>
        <time>2017-05-03T13:14:42Z</time>
      </trkpt>
      <trkpt lat="48.03903" lon="-4.73386">
        <ele>57.796875</ele>
        <time>2017-05-03T13:15:02Z</time>
      </trkpt>
      <trkpt lat="48.03903" lon="-4.73372">
        <ele>57.699219</ele>
        <time>2017-05-03T13:15:12Z</time>
      </trkpt>
      <trkpt lat="48.03901" lon="-4.73359">
        <ele>61</ele>
        <time>2017-05-03T13:15:21Z</time>
      </trkpt>
      <trkpt lat="48.03901" lon="-4.73345">
        <ele>65.199219</ele>
        <time>2017-05-03T13:15:31Z</time>
      </trkpt>
      <trkpt lat="48.03899" lon="-4.73331">
        <ele>70.296875</ele>
        <time>2017-05-03T13:16:08Z</time>
      </trkpt>
      <trkpt lat="48.0389" lon="-4.73333">
        <ele>72.699219</ele>
        <time>2017-05-03T13:19:42Z</time>
      </trkpt>
      <trkpt lat="48.03882" lon="-4.73327">
        <ele>70.5</ele>
        <time>2017-05-03T13:19:51Z</time>
      </trkpt>
      <trkpt lat="48.03874" lon="-4.73319">
        <ele>68.898438</ele>
        <time>2017-05-03T13:20:10Z</time>
      </trkpt>
      <trkpt lat="48.03866" lon="-4.73309">
        <ele>66.898438</ele>
        <time>2017-05-03T13:20:20Z</time>
      </trkpt>
      <trkpt lat="48.03859" lon="-4.73299">
        <ele>67.699219</ele>
        <time>2017-05-03T13:20:31Z</time>
      </trkpt>
      <trkpt lat="48.03853" lon="-4.73289">
        <ele>68.296875</ele>
        <time>2017-05-03T13:20:40Z</time>
      </trkpt>
      <trkpt lat="48.03827" lon="-4.73246">
        <ele>64.097656</ele>
        <time>2017-05-03T13:21:16Z</time>
      </trkpt>
      <trkpt lat="48.03819" lon="-4.73237">
        <ele>64</ele>
        <time>2017-05-03T13:21:25Z</time>
      </trkpt>
      <trkpt lat="48.03813" lon="-4.73226">
        <ele>65.398438</ele>
        <time>2017-05-03T13:21:34Z</time>
      </trkpt>
      <trkpt lat="48.03808" lon="-4.73213">
        <ele>65.597656</ele>
        <time>2017-05-03T13:21:43Z</time>
      </trkpt>
      <trkpt lat="48.03799" lon="-4.73188">
        <ele>63.898438</ele>
        <time>2017-05-03T13:21:59Z</time>
      </trkpt>
      <trkpt lat="48.03796" lon="-4.73175">
        <ele>64.296875</ele>
        <time>2017-05-03T13:22:14Z</time>
      </trkpt>
      <trkpt lat="48.03806" lon="-4.73173">
        <ele>65</ele>
        <time>2017-05-03T13:22:24Z</time>
      </trkpt>
      <trkpt lat="48.03815" lon="-4.73172">
        <ele>66</ele>
        <time>2017-05-03T13:22:33Z</time>
      </trkpt>
      <trkpt lat="48.03824" lon="-4.73173">
        <ele>67.898438</ele>
        <time>2017-05-03T13:22:42Z</time>
      </trkpt>
      <trkpt lat="48.03833" lon="-4.73174">
        <ele>68.296875</ele>
        <time>2017-05-03T13:22:50Z</time>
      </trkpt>
      <trkpt lat="48.03843" lon="-4.73177">
        <ele>68.398438</ele>
        <time>2017-05-03T13:22:58Z</time>
      </trkpt>
      <trkpt lat="48.03852" lon="-4.73178">
        <ele>70.398438</ele>
        <time>2017-05-03T13:23:06Z</time>
      </trkpt>
      <trkpt lat="48.03861" lon="-4.73171">
        <ele>88.296875</ele>
        <time>2017-05-03T13:23:14Z</time>
      </trkpt>
      <trkpt lat="48.03865" lon="-4.73158">
        <ele>62.796875</ele>
        <time>2017-05-03T13:23:42Z</time>
      </trkpt>
      <trkpt lat="48.03857" lon="-4.73174">
        <ele>63.597656</ele>
        <time>2017-05-03T13:26:26Z</time>
      </trkpt>
      <trkpt lat="48.03849" lon="-4.73183">
        <ele>65.097656</ele>
        <time>2017-05-03T13:26:35Z</time>
      </trkpt>
      <trkpt lat="48.0384" lon="-4.73179">
        <ele>67.398438</ele>
        <time>2017-05-03T13:26:44Z</time>
      </trkpt>
      <trkpt lat="48.03821" lon="-4.73172">
        <ele>68.597656</ele>
        <time>2017-05-03T13:27:01Z</time>
      </trkpt>
      <trkpt lat="48.03811" lon="-4.73171">
        <ele>68.699219</ele>
        <time>2017-05-03T13:27:12Z</time>
      </trkpt>
      <trkpt lat="48.03802" lon="-4.73171">
        <ele>67.597656</ele>
        <time>2017-05-03T13:27:20Z</time>
      </trkpt>
      <trkpt lat="48.03793" lon="-4.73169">
        <ele>67</ele>
        <time>2017-05-03T13:27:27Z</time>
      </trkpt>
      <trkpt lat="48.03785" lon="-4.73162">
        <ele>66</ele>
        <time>2017-05-03T13:27:35Z</time>
      </trkpt>
      <trkpt lat="48.03779" lon="-4.73151">
        <ele>65.398438</ele>
        <time>2017-05-03T13:27:43Z</time>
      </trkpt>
      <trkpt lat="48.03767" lon="-4.73128">
        <ele>66</ele>
        <time>2017-05-03T13:27:58Z</time>
      </trkpt>
      <trkpt lat="48.0375" lon="-4.73091">
        <ele>65</ele>
        <time>2017-05-03T13:28:22Z</time>
      </trkpt>
      <trkpt lat="48.03743" lon="-4.73081">
        <ele>64.199219</ele>
        <time>2017-05-03T13:28:30Z</time>
      </trkpt>
      <trkpt lat="48.03737" lon="-4.73069">
        <ele>63.5</ele>
        <time>2017-05-03T13:28:38Z</time>
      </trkpt>
      <trkpt lat="48.03732" lon="-4.73056">
        <ele>62.796875</ele>
        <time>2017-05-03T13:28:46Z</time>
      </trkpt>
      <trkpt lat="48.03726" lon="-4.73046">
        <ele>62.5</ele>
        <time>2017-05-03T13:28:53Z</time>
      </trkpt>
      <trkpt lat="48.03719" lon="-4.73035">
        <ele>63</ele>
        <time>2017-05-03T13:29:01Z</time>
      </trkpt>
      <trkpt lat="48.03711" lon="-4.73026">
        <ele>63.398438</ele>
        <time>2017-05-03T13:29:09Z</time>
      </trkpt>
      <trkpt lat="48.03703" lon="-4.73017">
        <ele>64</ele>
        <time>2017-05-03T13:29:17Z</time>
      </trkpt>
      <trkpt lat="48.03694" lon="-4.7301">
        <ele>64.597656</ele>
        <time>2017-05-03T13:29:25Z</time>
      </trkpt>
      <trkpt lat="48.03686" lon="-4.73">
        <ele>63.898438</ele>
        <time>2017-05-03T13:29:33Z</time>
      </trkpt>
      <trkpt lat="48.0368" lon="-4.72991">
        <ele>62.699219</ele>
        <time>2017-05-03T13:29:40Z</time>
      </trkpt>
      <trkpt lat="48.03673" lon="-4.7298">
        <ele>62.699219</ele>
        <time>2017-05-03T13:29:48Z</time>
      </trkpt>
      <trkpt lat="48.03662" lon="-4.72957">
        <ele>60</ele>
        <time>2017-05-03T13:30:03Z</time>
      </trkpt>
      <trkpt lat="48.03657" lon="-4.72945">
        <ele>60.5</ele>
        <time>2017-05-03T13:30:11Z</time>
      </trkpt>
      <trkpt lat="48.03647" lon="-4.72919">
        <ele>59.199219</ele>
        <time>2017-05-03T13:30:30Z</time>
      </trkpt>
      <trkpt lat="48.03641" lon="-4.72907">
        <ele>58</ele>
        <time>2017-05-03T13:30:38Z</time>
      </trkpt>
      <trkpt lat="48.03618" lon="-4.72859">
        <ele>60.097656</ele>
        <time>2017-05-03T13:31:12Z</time>
      </trkpt>
      <trkpt lat="48.03615" lon="-4.72846">
        <ele>57.699219</ele>
        <time>2017-05-03T13:31:20Z</time>
      </trkpt>
      <trkpt lat="48.03613" lon="-4.72833">
        <ele>57.796875</ele>
        <time>2017-05-03T13:31:47Z</time>
      </trkpt>
      <trkpt lat="48.03606" lon="-4.72823">
        <ele>58.699219</ele>
        <time>2017-05-03T13:31:56Z</time>
      </trkpt>
      <trkpt lat="48.03599" lon="-4.72814">
        <ele>57.097656</ele>
        <time>2017-05-03T13:32:07Z</time>
      </trkpt>
      <trkpt lat="48.03591" lon="-4.72807">
        <ele>55.898438</ele>
        <time>2017-05-03T13:32:18Z</time>
      </trkpt>
      <trkpt lat="48.03566" lon="-4.72785">
        <ele>50.699219</ele>
        <time>2017-05-03T13:32:50Z</time>
      </trkpt>
      <trkpt lat="48.03559" lon="-4.72776">
        <ele>51.097656</ele>
        <time>2017-05-03T13:32:59Z</time>
      </trkpt>
      <trkpt lat="48.03551" lon="-4.7277">
        <ele>48.898438</ele>
        <time>2017-05-03T13:33:07Z</time>
      </trkpt>
      <trkpt lat="48.03544" lon="-4.72761">
        <ele>48.796875</ele>
        <time>2017-05-03T13:33:16Z</time>
      </trkpt>
      <trkpt lat="48.03536" lon="-4.72754">
        <ele>49.5</ele>
        <time>2017-05-03T13:33:24Z</time>
      </trkpt>
      <trkpt lat="48.03526" lon="-4.7275">
        <ele>48.597656</ele>
        <time>2017-05-03T13:33:34Z</time>
      </trkpt>
      <trkpt lat="48.03517" lon="-4.72748">
        <ele>46.199219</ele>
        <time>2017-05-03T13:33:45Z</time>
      </trkpt>
      <trkpt lat="48.03509" lon="-4.72741">
        <ele>44.398438</ele>
        <time>2017-05-03T13:33:54Z</time>
      </trkpt>
      <trkpt lat="48.03501" lon="-4.72734">
        <ele>43.898438</ele>
        <time>2017-05-03T13:34:03Z</time>
      </trkpt>
      <trkpt lat="48.03493" lon="-4.72726">
        <ele>44.597656</ele>
        <time>2017-05-03T13:34:12Z</time>
      </trkpt>
      <trkpt lat="48.03484" lon="-4.72722">
        <ele>44.398438</ele>
        <time>2017-05-03T13:34:20Z</time>
      </trkpt>
      <trkpt lat="48.0344" lon="-4.72697">
        <ele>41.199219</ele>
        <time>2017-05-03T13:34:59Z</time>
      </trkpt>
      <trkpt lat="48.0343" lon="-4.72694">
        <ele>43.296875</ele>
        <time>2017-05-03T13:35:07Z</time>
      </trkpt>
      <trkpt lat="48.03421" lon="-4.72689">
        <ele>43.097656</ele>
        <time>2017-05-03T13:35:18Z</time>
      </trkpt>
      <trkpt lat="48.03404" lon="-4.72677">
        <ele>43.796875</ele>
        <time>2017-05-03T13:35:34Z</time>
      </trkpt>
      <trkpt lat="48.03377" lon="-4.72662">
        <ele>40.5</ele>
        <time>2017-05-03T13:35:59Z</time>
      </trkpt>
      <trkpt lat="48.03369" lon="-4.72654">
        <ele>40.199219</ele>
        <time>2017-05-03T13:36:07Z</time>
      </trkpt>
      <trkpt lat="48.03361" lon="-4.72644">
        <ele>41.898438</ele>
        <time>2017-05-03T13:36:16Z</time>
      </trkpt>
      <trkpt lat="48.03355" lon="-4.72633">
        <ele>43.699219</ele>
        <time>2017-05-03T13:36:25Z</time>
      </trkpt>
      <trkpt lat="48.0335" lon="-4.7262">
        <ele>44.796875</ele>
        <time>2017-05-03T13:36:35Z</time>
      </trkpt>
      <trkpt lat="48.03348" lon="-4.72607">
        <ele>42.898438</ele>
        <time>2017-05-03T13:36:44Z</time>
      </trkpt>
      <trkpt lat="48.03345" lon="-4.72592">
        <ele>41.796875</ele>
        <time>2017-05-03T13:36:54Z</time>
      </trkpt>
      <trkpt lat="48.03343" lon="-4.72578">
        <ele>43.597656</ele>
        <time>2017-05-03T13:37:03Z</time>
      </trkpt>
      <trkpt lat="48.03343" lon="-4.72562">
        <ele>43.796875</ele>
        <time>2017-05-03T13:37:35Z</time>
      </trkpt>
      <trkpt lat="48.03346" lon="-4.72548">
        <ele>44.898438</ele>
        <time>2017-05-03T13:37:44Z</time>
      </trkpt>
      <trkpt lat="48.03349" lon="-4.72534">
        <ele>46.597656</ele>
        <time>2017-05-03T13:37:53Z</time>
      </trkpt>
      <trkpt lat="48.03355" lon="-4.72522">
        <ele>47.699219</ele>
        <time>2017-05-03T13:38:06Z</time>
      </trkpt>
      <trkpt lat="48.03367" lon="-4.72501">
        <ele>47.699219</ele>
        <time>2017-05-03T13:38:24Z</time>
      </trkpt>
      <trkpt lat="48.03374" lon="-4.72492">
        <ele>49.199219</ele>
        <time>2017-05-03T13:38:33Z</time>
      </trkpt>
      <trkpt lat="48.03379" lon="-4.72481">
        <ele>52.597656</ele>
        <time>2017-05-03T13:38:41Z</time>
      </trkpt>
      <trkpt lat="48.03387" lon="-4.72472">
        <ele>53.597656</ele>
        <time>2017-05-03T13:38:50Z</time>
      </trkpt>
      <trkpt lat="48.03404" lon="-4.72457">
        <ele>53.699219</ele>
        <time>2017-05-03T13:39:08Z</time>
      </trkpt>
      <trkpt lat="48.03413" lon="-4.72454">
        <ele>56.597656</ele>
        <time>2017-05-03T13:39:18Z</time>
      </trkpt>
      <trkpt lat="48.03423" lon="-4.7245">
        <ele>58.699219</ele>
        <time>2017-05-03T13:39:42Z</time>
      </trkpt>
      <trkpt lat="48.03432" lon="-4.72451">
        <ele>58.898438</ele>
        <time>2017-05-03T13:39:52Z</time>
      </trkpt>
      <trkpt lat="48.03441" lon="-4.72447">
        <ele>59.597656</ele>
        <time>2017-05-03T13:40:00Z</time>
      </trkpt>
      <trkpt lat="48.0345" lon="-4.72453">
        <ele>60.699219</ele>
        <time>2017-05-03T13:40:09Z</time>
      </trkpt>
      <trkpt lat="48.0346" lon="-4.7245">
        <ele>60.796875</ele>
        <time>2017-05-03T13:40:20Z</time>
      </trkpt>
      <trkpt lat="48.03468" lon="-4.72443">
        <ele>61.699219</ele>
        <time>2017-05-03T13:40:29Z</time>
      </trkpt>
      <trkpt lat="48.03486" lon="-4.72431">
        <ele>62</ele>
        <time>2017-05-03T13:40:51Z</time>
      </trkpt>
      <trkpt lat="48.03493" lon="-4.7242">
        <ele>61.699219</ele>
        <time>2017-05-03T13:41:00Z</time>
      </trkpt>
      <trkpt lat="48.035" lon="-4.72409">
        <ele>61.699219</ele>
        <time>2017-05-03T13:41:09Z</time>
      </trkpt>
      <trkpt lat="48.03505" lon="-4.72398">
        <ele>61.597656</ele>
        <time>2017-05-03T13:41:17Z</time>
      </trkpt>
      <trkpt lat="48.03509" lon="-4.72385">
        <ele>62.5</ele>
        <time>2017-05-03T13:41:25Z</time>
      </trkpt>
      <trkpt lat="48.03513" lon="-4.72372">
        <ele>63.097656</ele>
        <time>2017-05-03T13:41:33Z</time>
      </trkpt>
      <trkpt lat="48.03517" lon="-4.72359">
        <ele>62.5</ele>
        <time>2017-05-03T13:41:41Z</time>
      </trkpt>
      <trkpt lat="48.03521" lon="-4.72347">
        <ele>61.199219</ele>
        <time>2017-05-03T13:41:49Z</time>
      </trkpt>
      <trkpt lat="48.03541" lon="-4.72299">
        <ele>61.199219</ele>
        <time>2017-05-03T13:42:22Z</time>
      </trkpt>
      <trkpt lat="48.03544" lon="-4.72285">
        <ele>61</ele>
        <time>2017-05-03T13:42:31Z</time>
      </trkpt>
      <trkpt lat="48.03553" lon="-4.72243">
        <ele>60.699219</ele>
        <time>2017-05-03T13:42:57Z</time>
      </trkpt>
      <trkpt lat="48.03558" lon="-4.72231">
        <ele>61.199219</ele>
        <time>2017-05-03T13:43:05Z</time>
      </trkpt>
      <trkpt lat="48.03602" lon="-4.72118">
        <ele>64.199219</ele>
        <time>2017-05-03T13:44:17Z</time>
      </trkpt>
      <trkpt lat="48.03606" lon="-4.72104">
        <ele>65.097656</ele>
        <time>2017-05-03T13:44:25Z</time>
      </trkpt>
      <trkpt lat="48.03609" lon="-4.72091">
        <ele>63.898438</ele>
        <time>2017-05-03T13:44:32Z</time>
      </trkpt>
      <trkpt lat="48.03612" lon="-4.72077">
        <ele>62.398438</ele>
        <time>2017-05-03T13:44:40Z</time>
      </trkpt>
      <trkpt lat="48.03613" lon="-4.72063">
        <ele>61.398438</ele>
        <time>2017-05-03T13:44:48Z</time>
      </trkpt>
      <trkpt lat="48.03613" lon="-4.72048">
        <ele>62.898438</ele>
        <time>2017-05-03T13:44:56Z</time>
      </trkpt>
      <trkpt lat="48.03613" lon="-4.7202">
        <ele>63.199219</ele>
        <time>2017-05-03T13:45:14Z</time>
      </trkpt>
      <trkpt lat="48.03612" lon="-4.72006">
        <ele>63.097656</ele>
        <time>2017-05-03T13:45:22Z</time>
      </trkpt>
      <trkpt lat="48.03609" lon="-4.71962">
        <ele>65.898438</ele>
        <time>2017-05-03T13:45:46Z</time>
      </trkpt>
      <trkpt lat="48.03607" lon="-4.71948">
        <ele>66.296875</ele>
        <time>2017-05-03T13:45:54Z</time>
      </trkpt>
      <trkpt lat="48.03602" lon="-4.71936">
        <ele>64.296875</ele>
        <time>2017-05-03T13:46:02Z</time>
      </trkpt>
      <trkpt lat="48.03596" lon="-4.71925">
        <ele>62.097656</ele>
        <time>2017-05-03T13:46:11Z</time>
      </trkpt>
      <trkpt lat="48.03588" lon="-4.71918">
        <ele>61.597656</ele>
        <time>2017-05-03T13:46:21Z</time>
      </trkpt>
      <trkpt lat="48.03583" lon="-4.71906">
        <ele>61.898438</ele>
        <time>2017-05-03T13:46:30Z</time>
      </trkpt>
      <trkpt lat="48.03586" lon="-4.71893">
        <ele>63.597656</ele>
        <time>2017-05-03T13:46:39Z</time>
      </trkpt>
      <trkpt lat="48.03595" lon="-4.71898">
        <ele>68.097656</ele>
        <time>2017-05-03T13:46:50Z</time>
      </trkpt>
      <trkpt lat="48.03602" lon="-4.71889">
        <ele>67.796875</ele>
        <time>2017-05-03T13:48:10Z</time>
      </trkpt>
      <trkpt lat="48.03611" lon="-4.71885">
        <ele>68.097656</ele>
        <time>2017-05-03T13:48:17Z</time>
      </trkpt>
      <trkpt lat="48.0362" lon="-4.71881">
        <ele>67.398438</ele>
        <time>2017-05-03T13:48:24Z</time>
      </trkpt>
      <trkpt lat="48.03649" lon="-4.71873">
        <ele>67.398438</ele>
        <time>2017-05-03T13:48:45Z</time>
      </trkpt>
      <trkpt lat="48.03742" lon="-4.71848">
        <ele>62.796875</ele>
        <time>2017-05-03T13:49:59Z</time>
      </trkpt>
      <trkpt lat="48.03749" lon="-4.71856">
        <ele>70.5</ele>
        <time>2017-05-03T13:50:12Z</time>
      </trkpt>
      <trkpt lat="48.03755" lon="-4.71869">
        <ele>67.597656</ele>
        <time>2017-05-03T13:51:14Z</time>
      </trkpt>
      <trkpt lat="48.03745" lon="-4.71871">
        <ele>70.5</ele>
        <time>2017-05-03T13:51:56Z</time>
      </trkpt>
      <trkpt lat="48.0375" lon="-4.71856">
        <ele>70.5</ele>
        <time>2017-05-03T13:52:06Z</time>
      </trkpt>
      <trkpt lat="48.03759" lon="-4.71858">
        <ele>56</ele>
        <time>2017-05-03T13:52:18Z</time>
      </trkpt>
      <trkpt lat="48.03754" lon="-4.71869">
        <ele>52.296875</ele>
        <time>2017-05-03T13:52:34Z</time>
      </trkpt>
      <trkpt lat="48.03749" lon="-4.71888">
        <ele>57.085938</ele>
        <time>2017-05-03T13:53:07Z</time>
      </trkpt>
    </trkseg>
  </trk>
</gpx>